createdAt,value
2023-04-29T00:01:42.104Z,15.88
2023-04-29T00:04:10.325Z,15.43
2023-04-29T00:06:37.495Z,14.57
2023-04-29T00:09:05.122Z,15.52
2023-04-29T00:11:32.337Z,15.45
2023-04-29T00:14:00.045Z,15.35
2023-04-29T00:16:28.022Z,15.63
2023-04-29T00:18:55.809Z,15.30
2023-04-29T00:21:22.921Z,15.50
2023-04-29T00:23:51.180Z,15.43
2023-04-29T00:26:18.164Z,16.83
2023-04-29T00:28:48.472Z,14.82
2023-04-29T00:31:16.056Z,15.57
2023-04-29T00:33:43.749Z,15.48
2023-04-29T00:36:11.339Z,15.52
2023-04-29T00:38:39.348Z,15.43
2023-04-29T00:41:07.064Z,15.10
2023-04-29T00:43:34.239Z,15.20
2023-04-29T00:46:01.813Z,14.73
2023-04-29T00:48:29.519Z,15.70
2023-04-29T00:50:56.971Z,14.57
2023-04-29T00:53:24.352Z,15.18
2023-04-29T00:55:52.271Z,14.93
2023-04-29T00:58:20.214Z,16.15
2023-04-29T01:00:48.195Z,14.60
2023-04-29T01:03:16.746Z,15.18
2023-04-29T01:05:50.579Z,15.18
2023-04-29T01:08:48.195Z,14.38
2023-04-29T01:11:23.345Z,14.98
2023-04-29T01:13:55.061Z,14.70
2023-04-29T01:19:07.495Z,15.45
2023-04-29T01:21:51.805Z,15.73
2023-04-29T01:24:20.915Z,14.30
2023-04-29T01:27:02.202Z,14.57
2023-04-29T01:29:53.913Z,14.55
2023-04-29T01:32:41.785Z,14.77
2023-04-29T01:35:38.400Z,14.10
2023-04-29T01:38:37.986Z,13.90
2023-04-29T01:41:18.900Z,14.30
2023-04-29T01:43:51.908Z,13.65
2023-04-29T01:46:24.936Z,14.75
2023-04-29T01:48:56.055Z,14.52
2023-04-29T01:51:23.927Z,13.73
2023-04-29T01:53:51.317Z,14.18
2023-04-29T01:56:19.555Z,13.82
2023-04-29T01:59:01.136Z,14.75
2023-04-29T02:01:56.785Z,13.43
2023-04-29T02:04:25.464Z,13.95
2023-04-29T02:06:52.999Z,13.95
2023-04-29T02:09:20.274Z,14.07
2023-04-29T02:11:53.564Z,13.40
2023-04-29T02:14:21.203Z,13.65
2023-04-29T02:16:48.480Z,13.15
2023-04-29T02:19:15.646Z,13.52
2023-04-29T02:21:43.549Z,13.45
2023-04-29T02:24:10.664Z,13.75
2023-04-29T02:26:38.952Z,13.38
2023-04-29T02:29:06.060Z,14.05
2023-04-29T02:31:33.478Z,12.73
2023-04-29T02:34:00.781Z,13.35
2023-04-29T02:36:28.863Z,13.40
2023-04-29T02:38:56.750Z,13.40
2023-04-29T02:41:25.780Z,12.13
2023-04-29T02:43:53.126Z,13.10
2023-04-29T02:46:21.034Z,12.88
2023-04-29T02:48:48.165Z,13.00
2023-04-29T02:51:16.541Z,12.95
2023-04-29T02:53:44.360Z,11.95
2023-04-29T02:56:12.394Z,11.75
2023-04-29T02:58:39.511Z,11.80
2023-04-29T03:01:07.386Z,12.25
2023-04-29T03:03:34.853Z,12.77
2023-04-29T03:06:03.679Z,12.30
2023-04-29T03:08:30.829Z,13.27
2023-04-29T03:10:58.767Z,12.45
2023-04-29T03:13:25.966Z,12.23
2023-04-29T03:15:53.349Z,12.55
2023-04-29T03:18:20.562Z,11.75
2023-04-29T03:20:48.682Z,11.20
2023-04-29T03:23:15.927Z,12.40
2023-04-29T03:25:43.477Z,11.43
2023-04-29T03:28:11.160Z,11.65
2023-04-29T03:30:38.905Z,12.57
2023-04-29T03:33:06.287Z,11.20
2023-04-29T03:35:34.049Z,12.20
2023-04-29T03:38:25.998Z,12.25
2023-04-29T03:40:55.479Z,11.07
2023-04-29T03:43:22.638Z,10.35
2023-04-29T03:45:50.317Z,11.73
2023-04-29T03:48:21.595Z,11.55
2023-04-29T03:50:49.086Z,11.02
2023-04-29T03:53:16.860Z,13.50
2023-04-29T03:55:44.690Z,11.43
2023-04-29T03:58:11.996Z,10.93
2023-04-29T04:00:39.218Z,11.35
2023-04-29T04:03:12.034Z,10.57
2023-04-29T04:05:40.350Z,10.93
2023-04-29T04:10:45.025Z,10.95
2023-04-29T04:13:30.716Z,11.55
2023-04-29T04:15:59.243Z,10.80
2023-04-29T04:18:26.708Z,11.48
2023-04-29T04:20:54.107Z,10.60
2023-04-29T04:23:21.185Z,9.77
2023-04-29T04:25:49.774Z,10.13
2023-04-29T04:28:35.557Z,10.60
2023-04-29T04:31:11.027Z,10.27
2023-04-29T04:33:38.669Z,9.57
2023-04-29T04:36:06.419Z,9.40
2023-04-29T04:38:33.581Z,9.52
2023-04-29T04:41:08.128Z,9.30
2023-04-29T04:43:38.430Z,8.57
2023-04-29T04:46:12.101Z,9.13
2023-04-29T04:48:43.467Z,9.07
2023-04-29T04:51:14.394Z,8.85
2023-04-29T04:53:43.342Z,7.80
2023-04-29T04:56:18.836Z,7.22
2023-04-29T04:58:46.710Z,7.32
2023-04-29T05:01:15.432Z,8.23
2023-04-29T05:03:42.772Z,9.15
2023-04-29T05:06:10.270Z,8.38
2023-04-29T05:08:39.591Z,8.07
2023-04-29T05:11:16.806Z,7.65
2023-04-29T05:13:44.208Z,9.02
2023-04-29T05:16:12.386Z,7.55
2023-04-29T05:18:46.065Z,7.15
2023-04-29T05:21:16.529Z,7.90
2023-04-29T05:23:46.346Z,6.95
2023-04-29T05:26:13.744Z,7.55
2023-04-29T05:28:40.907Z,7.00
2023-04-29T05:31:09.807Z,7.57
2023-04-29T05:33:37.468Z,7.45
2023-04-29T05:36:05.416Z,7.07
2023-04-29T05:38:32.651Z,6.82
2023-04-29T05:41:04.429Z,7.32
2023-04-29T05:43:51.856Z,6.68
2023-04-29T05:46:20.710Z,6.68
2023-04-29T05:48:49.705Z,6.47
2023-04-29T05:51:17.041Z,6.60
2023-04-29T05:53:44.700Z,6.85
2023-04-29T05:56:11.991Z,6.38
2023-04-29T05:58:40.216Z,5.95
2023-04-29T06:01:08.004Z,6.40
2023-04-29T06:03:36.411Z,6.90
2023-04-29T06:06:27.140Z,6.47
2023-04-29T06:09:26.276Z,6.47
2023-04-29T06:11:56.529Z,6.65
2023-04-29T06:14:23.938Z,5.70
2023-04-29T06:16:53.892Z,5.88
2023-04-29T06:19:21.209Z,5.80
2023-04-29T06:21:49.490Z,5.93
2023-04-29T06:24:16.561Z,5.15
2023-04-29T06:26:43.893Z,5.35
2023-04-29T06:29:11.428Z,4.75
2023-04-29T06:31:39.381Z,5.10
2023-04-29T06:34:06.524Z,5.20
2023-04-29T06:36:38.189Z,4.80
2023-04-29T06:39:23.069Z,4.90
2023-04-29T06:42:09.595Z,5.75
2023-04-29T06:44:46.352Z,5.40
2023-04-29T06:47:34.397Z,5.40
2023-04-29T06:50:11.857Z,4.68
2023-04-29T06:52:39.662Z,5.20
2023-04-29T06:55:07.055Z,5.72
2023-04-29T06:57:34.764Z,5.13
2023-04-29T07:00:01.703Z,5.32
2023-04-29T07:02:29.264Z,4.78
2023-04-29T07:04:56.452Z,5.20
2023-04-29T07:07:24.356Z,4.80
2023-04-29T07:09:53.013Z,4.30
2023-04-29T07:12:21.449Z,4.50
2023-04-29T07:14:48.377Z,4.38
2023-04-29T07:17:16.152Z,4.30
2023-04-29T07:19:43.883Z,4.30
2023-04-29T07:22:12.489Z,4.43
2023-04-29T07:24:39.899Z,4.60
2023-04-29T07:27:07.475Z,4.13
2023-04-29T07:29:36.597Z,4.60
2023-04-29T07:32:04.743Z,3.58
2023-04-29T07:34:35.574Z,3.85
2023-04-29T07:37:03.141Z,4.03
2023-04-29T07:39:30.566Z,3.25
2023-04-29T07:42:00.158Z,4.15
2023-04-29T07:44:27.678Z,4.00
2023-04-29T07:46:54.971Z,5.15
2023-04-29T07:49:22.804Z,4.65
2023-04-29T07:51:49.969Z,3.53
2023-04-29T07:54:17.324Z,3.95
2023-04-29T07:56:44.512Z,3.60
2023-04-29T07:59:12.024Z,3.60
2023-04-29T08:01:41.443Z,3.58
2023-04-29T08:04:09.487Z,3.85
2023-04-29T08:06:46.874Z,4.70
2023-04-29T08:09:14.162Z,3.13
2023-04-29T08:11:43.841Z,4.40
2023-04-29T08:14:13.300Z,3.57
2023-04-29T08:16:40.539Z,4.30
2023-04-29T08:19:08.149Z,3.40
2023-04-29T08:21:35.552Z,3.92
2023-04-29T08:24:02.912Z,3.30
2023-04-29T08:26:30.528Z,4.03
2023-04-29T08:28:57.768Z,4.38
2023-04-29T08:31:26.122Z,3.58
2023-04-29T08:33:54.155Z,3.80
2023-04-29T08:36:21.567Z,3.15
2023-04-29T08:38:52.960Z,4.28
2023-04-29T08:43:47.629Z,3.28
2023-04-29T08:46:15.694Z,4.35
2023-04-29T08:48:45.186Z,4.13
2023-04-29T08:51:14.174Z,4.10
2023-04-29T08:53:41.490Z,3.55
2023-04-29T08:56:18.256Z,4.03
2023-04-29T08:58:46.565Z,3.60
2023-04-29T09:01:14.981Z,3.53
2023-04-29T09:04:37.096Z,3.50
2023-04-29T09:07:05.842Z,4.15
2023-04-29T09:09:33.472Z,3.70
2023-04-29T09:12:00.735Z,3.80
2023-04-29T09:14:30.534Z,3.85
2023-04-29T09:16:58.112Z,3.75
2023-04-29T09:19:31.218Z,3.83
2023-04-29T09:21:59.207Z,3.90
2023-04-29T09:24:28.627Z,3.78
2023-04-29T09:26:56.757Z,3.67
2023-04-29T09:29:24.172Z,4.03
2023-04-29T09:31:55.114Z,4.03
2023-04-29T09:34:33.460Z,3.58
2023-04-29T09:37:00.890Z,3.47
2023-04-29T09:39:39.090Z,3.95
2023-04-29T09:42:07.027Z,4.10
2023-04-29T09:44:38.457Z,3.85
2023-04-29T09:47:08.827Z,3.97
2023-04-29T09:49:45.238Z,3.70
2023-04-29T09:52:14.534Z,3.70
2023-04-29T09:54:43.614Z,3.83
2023-04-29T09:57:13.018Z,5.60
2023-04-29T09:59:41.576Z,4.00
2023-04-29T10:02:20.918Z,4.07
2023-04-29T10:04:54.648Z,3.65
2023-04-29T10:07:23.147Z,3.42
2023-04-29T10:09:50.626Z,3.85
2023-04-29T10:12:20.920Z,4.15
2023-04-29T10:15:04.243Z,3.83
2023-04-29T10:17:47.277Z,3.60
2023-04-29T10:20:16.784Z,3.92
2023-04-29T10:22:48.529Z,3.28
2023-04-29T10:25:18.596Z,3.50
2023-04-29T10:27:47.035Z,3.88
2023-04-29T10:30:16.502Z,3.38
2023-04-29T10:32:51.066Z,3.72
2023-04-29T10:35:23.253Z,3.22
2023-04-29T10:37:51.955Z,3.20
2023-04-29T10:40:30.054Z,4.28
2023-04-29T10:42:58.551Z,3.70
2023-04-29T10:45:36.476Z,3.40
2023-04-29T10:48:06.872Z,3.33
2023-04-29T10:50:49.846Z,3.72
2023-04-29T10:53:20.288Z,3.70
2023-04-29T10:55:48.391Z,3.55
2023-04-29T10:58:41.277Z,3.50
2023-04-29T11:01:11.347Z,3.63
2023-04-29T11:03:55.956Z,3.58
2023-04-29T11:06:26.383Z,3.38
2023-04-29T11:09:14.567Z,3.22
2023-04-29T11:12:03.467Z,3.63
2023-04-29T11:14:38.962Z,3.28
2023-04-29T11:17:12.736Z,3.15
2023-04-29T11:19:43.300Z,4.22
2023-04-29T11:22:21.493Z,4.13
2023-04-29T11:24:58.964Z,3.50
2023-04-29T11:27:30.973Z,3.42
2023-04-29T11:30:00.141Z,3.65
2023-04-29T11:32:30.152Z,3.28
2023-04-29T11:35:08.936Z,3.33
2023-04-29T11:37:36.931Z,3.35
2023-04-29T11:40:06.255Z,3.50
2023-04-29T11:42:41.823Z,3.65
2023-04-29T11:45:09.479Z,3.38
2023-04-29T11:47:37.385Z,3.42
2023-04-29T11:50:10.358Z,3.38
2023-04-29T11:52:39.488Z,3.58
2023-04-29T11:55:11.734Z,3.20
2023-04-29T11:57:40.596Z,3.10
2023-04-29T12:00:14.030Z,3.85
2023-04-29T12:02:45.368Z,3.38
2023-04-29T12:05:13.832Z,3.60
2023-04-29T12:07:41.516Z,3.30
2023-04-29T12:10:13.700Z,3.47
2023-04-29T12:12:43.887Z,3.28
2023-04-29T12:15:12.935Z,3.83
2023-04-29T12:17:40.856Z,3.20
2023-04-29T12:20:10.961Z,3.42
2023-04-29T12:22:38.593Z,3.80
2023-04-29T12:25:07.702Z,4.05
2023-04-29T12:27:37.162Z,3.58
2023-04-29T12:30:09.944Z,3.00
2023-04-29T12:32:38.417Z,2.80
2023-04-29T12:35:07.358Z,3.60
2023-04-29T12:37:35.564Z,3.50
2023-04-29T12:40:04.095Z,3.25
2023-04-29T12:42:37.020Z,4.05
2023-04-29T12:45:06.808Z,3.80
2023-04-29T12:47:34.986Z,3.60
2023-04-29T12:50:02.999Z,3.63
2023-04-29T12:52:30.056Z,3.25
2023-04-29T12:54:57.896Z,4.10
2023-04-29T12:57:26.546Z,3.83
2023-04-29T12:59:54.367Z,3.70
2023-04-29T13:02:21.481Z,3.80
2023-04-29T13:04:49.504Z,3.50
2023-04-29T13:07:16.602Z,3.15
2023-04-29T13:09:44.370Z,15.18
2023-04-29T13:12:11.326Z,4.03
2023-04-29T13:14:39.000Z,3.80
2023-04-29T13:17:06.418Z,3.78
2023-04-29T13:19:48.197Z,3.65
2023-04-29T13:22:17.626Z,3.45
2023-04-29T13:24:45.157Z,3.33
2023-04-29T13:27:12.668Z,3.33
2023-04-29T13:29:40.158Z,4.00
2023-04-29T13:32:08.416Z,3.53
2023-04-29T13:34:36.023Z,3.50
2023-04-29T13:37:03.788Z,3.42
2023-04-29T13:39:31.610Z,3.47
2023-04-29T13:41:59.752Z,3.60
2023-04-29T13:44:34.329Z,3.90
2023-04-29T13:47:05.576Z,3.60
2023-04-29T13:52:58.433Z,3.90
2023-04-29T13:55:14.826Z,3.88
2023-04-29T13:58:30.827Z,3.95
2023-04-29T14:00:56.790Z,3.70
2023-04-29T14:03:13.813Z,4.22
2023-04-29T14:05:42.083Z,4.03
2023-04-29T14:08:09.654Z,3.40
2023-04-29T14:10:37.474Z,4.22
2023-04-29T14:13:05.456Z,3.63
2023-04-29T14:15:33.198Z,3.80
2023-04-29T14:18:01.041Z,3.60
2023-04-29T14:20:28.226Z,3.95
2023-04-29T14:22:55.407Z,2.95
2023-04-29T14:25:22.733Z,3.85
2023-04-29T14:27:50.211Z,4.05
2023-04-29T14:30:17.810Z,3.42
2023-04-29T14:32:45.184Z,3.53
2023-04-29T14:35:12.670Z,3.63
2023-04-29T14:37:40.150Z,4.20
2023-04-29T14:40:09.649Z,3.60
2023-04-29T14:42:36.627Z,4.18
2023-04-29T14:45:05.124Z,3.70
2023-04-29T14:47:32.575Z,3.63
2023-04-29T14:50:00.630Z,3.10
2023-04-29T14:52:28.205Z,4.15
2023-04-29T14:54:55.921Z,4.10
2023-04-29T14:57:23.377Z,3.90
2023-04-29T14:59:50.998Z,3.38
2023-04-29T15:02:18.297Z,3.53
2023-04-29T15:04:46.419Z,3.90
2023-04-29T15:07:14.088Z,4.00
2023-04-29T15:09:42.024Z,3.65
2023-04-29T15:12:09.654Z,4.05
2023-04-29T15:14:37.311Z,3.80
2023-04-29T15:17:04.903Z,4.10
2023-04-29T15:19:32.169Z,3.80
2023-04-29T15:21:59.345Z,3.60
2023-04-29T15:24:26.728Z,3.70
2023-04-29T15:26:54.059Z,4.05
2023-04-29T15:29:21.675Z,4.90
2023-04-29T15:31:49.169Z,3.72
2023-04-29T15:34:16.486Z,3.63
2023-04-29T15:36:44.278Z,4.07
2023-04-29T15:39:12.315Z,4.75
2023-04-29T15:41:39.721Z,4.07
2023-04-29T15:44:33.673Z,3.90
2023-04-29T15:47:02.838Z,3.63
2023-04-29T15:49:31.381Z,3.50
2023-04-29T15:51:58.979Z,4.30
2023-04-29T15:54:26.862Z,3.92
2023-04-29T15:56:55.522Z,3.63
2023-04-29T15:59:25.436Z,3.90
2023-04-29T16:01:52.773Z,4.15
2023-04-29T16:04:20.600Z,3.92
2023-04-29T16:06:49.360Z,3.78
2023-04-29T16:09:19.828Z,4.45
2023-04-29T16:11:47.117Z,4.00
2023-04-29T16:14:14.845Z,3.95
2023-04-29T16:16:42.280Z,4.03
2023-04-29T16:19:10.641Z,3.65
2023-04-29T16:21:37.626Z,4.13
2023-04-29T16:24:05.835Z,3.80
2023-04-29T16:26:34.230Z,3.83
2023-04-29T16:29:05.853Z,3.90
2023-04-29T16:31:33.252Z,3.72
2023-04-29T16:34:00.528Z,3.90
2023-04-29T16:36:28.213Z,3.97
2023-04-29T16:38:56.106Z,4.20
2023-04-29T16:41:23.553Z,4.38
2023-04-29T16:43:51.107Z,3.95
2023-04-29T16:46:18.428Z,4.40
2023-04-29T16:48:45.816Z,4.00
2023-04-29T16:51:13.583Z,3.47
2023-04-29T16:53:41.175Z,3.92
2023-04-29T16:56:08.771Z,3.78
2023-04-29T16:58:35.876Z,4.10
2023-04-29T17:01:05.003Z,3.80
2023-04-29T17:03:32.230Z,4.03
2023-04-29T17:06:00.060Z,3.85
2023-04-29T17:08:29.443Z,4.50
2023-04-29T17:10:57.034Z,5.53
2023-04-29T17:13:24.298Z,4.28
2023-04-29T17:15:51.860Z,4.30
2023-04-29T17:18:20.113Z,3.90
2023-04-29T17:20:48.833Z,3.65
2023-04-29T17:23:18.474Z,4.03
2023-04-29T17:25:45.724Z,4.18
2023-04-29T17:28:13.009Z,4.30
2023-04-29T17:30:40.786Z,4.05
2023-04-29T17:33:08.893Z,4.20
2023-04-29T17:35:36.344Z,4.20
2023-04-29T17:38:03.958Z,4.22
2023-04-29T17:40:30.969Z,4.70
2023-04-29T17:42:58.389Z,4.82
2023-04-29T17:45:26.267Z,5.55
2023-04-29T17:47:53.676Z,5.70
2023-04-29T17:50:20.967Z,5.60
2023-04-29T17:52:48.696Z,5.47
2023-04-29T17:55:15.741Z,5.03
2023-04-29T17:57:43.576Z,4.75
2023-04-29T18:00:11.546Z,4.88
2023-04-29T18:02:39.744Z,4.90
2023-04-29T18:05:07.054Z,4.75
2023-04-29T18:07:34.390Z,4.97
2023-04-29T18:10:01.497Z,4.90
2023-04-29T18:12:29.078Z,4.65
2023-04-29T18:14:56.255Z,4.75
2023-04-29T18:17:23.711Z,4.85
2023-04-29T18:19:50.711Z,5.28
2023-04-29T18:22:18.343Z,5.55
2023-04-29T18:24:46.750Z,5.32
2023-04-29T18:27:14.647Z,5.00
2023-04-29T18:29:41.817Z,4.88
2023-04-29T18:32:09.435Z,5.78
2023-04-29T18:34:36.705Z,5.38
2023-04-29T18:37:04.324Z,5.15
2023-04-29T18:39:31.319Z,6.72
2023-04-29T18:41:59.182Z,5.40
2023-04-29T18:44:27.992Z,5.10
2023-04-29T18:46:55.938Z,5.03
2023-04-29T18:49:22.846Z,5.50
2023-04-29T18:51:50.408Z,5.97
2023-04-29T18:54:19.133Z,5.95
2023-04-29T18:56:48.815Z,6.45
2023-04-29T18:59:19.445Z,5.63
2023-04-29T19:01:48.498Z,5.38
2023-04-29T19:04:16.837Z,5.85
2023-04-29T19:06:44.878Z,5.85
2023-04-29T19:09:12.476Z,5.95
2023-04-29T19:11:40.358Z,7.20
2023-04-29T19:14:07.814Z,6.10
2023-04-29T19:16:37.360Z,6.40
2023-04-29T19:19:04.767Z,6.60
2023-04-29T19:21:33.402Z,6.60
2023-04-29T19:24:01.000Z,6.78
2023-04-29T19:26:29.049Z,7.15
2023-04-29T19:28:57.253Z,7.13
2023-04-29T19:31:24.717Z,6.53
2023-04-29T19:33:52.486Z,6.30
2023-04-29T19:36:19.684Z,7.65
2023-04-29T19:38:47.137Z,7.10
2023-04-29T19:41:14.738Z,7.68
2023-04-29T19:43:41.909Z,7.30
2023-04-29T19:46:12.209Z,7.07
2023-04-29T19:48:39.630Z,6.97
2023-04-29T19:51:08.435Z,7.47
2023-04-29T19:53:36.464Z,7.13
2023-04-29T19:56:03.970Z,7.18
2023-04-29T19:58:31.154Z,7.10
2023-04-29T20:00:58.591Z,7.38
2023-04-29T20:03:26.555Z,8.00
2023-04-29T20:05:54.942Z,7.53
2023-04-29T20:08:22.486Z,7.35
2023-04-29T20:10:49.631Z,8.20
2023-04-29T20:13:16.996Z,8.43
2023-04-29T20:15:44.347Z,7.90
2023-04-29T20:18:11.796Z,8.07
2023-04-29T20:20:39.172Z,7.85
2023-04-29T20:23:06.576Z,8.13
2023-04-29T20:25:34.060Z,8.25
2023-04-29T20:28:02.096Z,8.20
2023-04-29T20:30:29.963Z,7.88
2023-04-29T20:32:56.977Z,9.57
2023-04-29T20:35:24.633Z,8.60
2023-04-29T20:37:52.178Z,8.48
2023-04-29T20:40:19.961Z,8.52
2023-04-29T20:42:47.250Z,8.13
2023-04-29T20:45:15.030Z,7.80
2023-04-29T20:47:42.257Z,7.75
2023-04-29T20:50:10.047Z,10.82
2023-04-29T20:52:38.079Z,8.25
2023-04-29T20:55:06.202Z,8.30
2023-04-29T20:57:33.216Z,8.15
2023-04-29T21:00:01.077Z,8.73
2023-04-29T21:02:28.090Z,9.23
2023-04-29T21:04:55.972Z,9.40
2023-04-29T21:07:23.041Z,8.85
2023-04-29T21:09:51.252Z,8.30
2023-04-29T21:12:18.549Z,9.70
2023-04-29T21:14:46.290Z,9.43
2023-04-29T21:17:13.178Z,9.35
2023-04-29T21:19:40.696Z,9.00
2023-04-29T21:22:07.760Z,8.73
2023-04-29T21:24:35.393Z,8.90
2023-04-29T21:27:02.898Z,9.77
2023-04-29T21:29:30.485Z,9.30
2023-04-29T21:31:57.362Z,8.90
2023-04-29T21:34:25.088Z,9.05
2023-04-29T21:36:51.998Z,9.25
2023-04-29T21:39:20.146Z,8.65
2023-04-29T21:41:47.324Z,9.38
2023-04-29T21:44:15.479Z,8.93
2023-04-29T21:46:42.806Z,8.68
2023-04-29T21:49:10.534Z,8.82
2023-04-29T21:51:37.762Z,8.45
2023-04-29T21:54:08.517Z,8.90
2023-04-29T21:56:36.480Z,8.48
2023-04-29T21:59:04.102Z,8.73
2023-04-29T22:01:43.589Z,8.90
2023-04-29T22:04:11.891Z,8.45
2023-04-29T22:06:39.016Z,8.00
2023-04-29T22:09:07.338Z,8.45
2023-04-29T22:11:35.003Z,7.78
2023-04-29T22:14:02.562Z,9.40
2023-04-29T22:16:29.979Z,9.45
2023-04-29T22:18:58.657Z,10.25
2023-04-29T22:21:27.990Z,10.60
2023-04-29T22:23:55.946Z,11.35
2023-04-29T22:26:25.637Z,11.07
2023-04-29T22:28:53.255Z,11.02
2023-04-29T22:31:20.428Z,10.82
2023-04-29T22:33:48.417Z,10.27
2023-04-29T22:36:15.643Z,10.00
2023-04-29T22:38:42.910Z,10.15
2023-04-29T22:41:11.705Z,10.43
2023-04-29T22:43:38.926Z,10.48
2023-04-29T22:46:06.270Z,10.30
2023-04-29T22:48:33.764Z,10.52
2023-04-29T22:51:01.356Z,9.82
2023-04-29T22:53:28.832Z,11.27
2023-04-29T22:55:58.666Z,11.38
2023-04-29T22:58:26.621Z,10.98
2023-04-29T23:00:59.472Z,10.63
2023-04-29T23:03:28.173Z,10.38
2023-04-29T23:05:59.632Z,10.70
2023-04-29T23:08:27.657Z,11.00
2023-04-29T23:10:55.449Z,11.18
2023-04-29T23:13:23.432Z,11.98
2023-04-29T23:15:50.751Z,12.05
2023-04-29T23:18:18.376Z,12.85
2023-04-29T23:20:48.493Z,13.20
2023-04-29T23:23:16.165Z,13.75
2023-04-29T23:25:45.282Z,12.25
2023-04-29T23:28:13.125Z,13.43
2023-04-29T23:30:40.554Z,13.50
2023-04-29T23:33:08.650Z,13.93
2023-04-29T23:35:35.936Z,13.52
2023-04-29T23:38:03.406Z,14.18
2023-04-29T23:40:31.797Z,14.65
2023-04-29T23:42:59.416Z,15.38
2023-04-29T23:45:26.520Z,14.63
2023-04-29T23:47:54.432Z,17.33
2023-04-29T23:50:21.394Z,14.80
2023-04-29T23:52:49.064Z,16.08
2023-04-29T23:55:16.154Z,15.95
2023-04-29T23:57:43.440Z,14.68
